Time;durP1;ratioP1;P1;durP2;ratioP2;P2;SDS_P1;SDS_P2;PMS_P1;PMS_P2;Temp;Humidity;BMP_temperature;BMP_pressure;BME280_temperature;BME280_humidity;BME280_pressure;Samples;Min_cycle;Max_cycle;Signal;HPM_P1;HPM_P2
2022/10/12 00:01:07;;;;;;;8.97;4.40;;;10.10;99.90;;;;;;5073269;28;20221;-71
2022/10/12 00:03:34;;;;;;;12.07;4.77;;;10.10;99.90;;;;;;5062011;28;20175;-70
2022/10/12 00:06:20;;;;;;;11.47;4.23;;;10.10;99.90;;;;;;5053160;28;20266;-71
2022/10/12 00:08:47;;;;;;;11.17;4.17;;;10.10;99.90;;;;;;5066025;28;20212;-71
2022/10/12 00:11:19;;;;;;;10.57;4.50;;;10.10;99.90;;;;;;5079895;28;20738;-72
2022/10/12 00:13:45;;;;;;;10.17;4.43;;;10.10;99.90;;;;;;5071897;28;20207;-70
2022/10/12 00:16:12;;;;;;;11.47;4.40;;;10.10;99.90;;;;;;5050695;28;20203;-71
2022/10/12 00:18:39;;;;;;;11.13;4.40;;;10.10;99.90;;;;;;5068609;28;20214;-71
2022/10/12 00:21:06;;;;;;;12.93;4.50;;;10.00;99.90;;;;;;5063749;28;20202;-71
2022/10/12 00:23:34;;;;;;;11.10;4.47;;;10.00;99.90;;;;;;5083302;28;20245;-71
2022/10/12 00:26:05;;;;;;;10.33;4.03;;;10.00;99.90;;;;;;5075080;28;20678;-71
2022/10/12 00:28:32;;;;;;;13.77;4.30;;;9.90;99.90;;;;;;5063633;28;20230;-71
2022/10/12 00:30:57;;;;;;;7.27;4.40;;;9.90;99.90;;;;;;5071509;28;20219;-71
2022/10/12 00:33:23;;;;;;;8.60;4.20;;;9.90;99.90;;;;;;5056778;28;20176;-71
2022/10/12 00:35:49;;;;;;;13.83;4.90;;;9.90;99.90;;;;;;5068862;28;20179;-71
2022/10/12 00:38:14;;;;;;;12.70;4.67;;;9.90;99.90;;;;;;5077205;28;20198;-72
2022/10/12 00:40:40;;;;;;;10.13;4.10;;;9.90;99.90;;;;;;5069202;28;20203;-72
2022/10/12 00:43:27;;;;;;;9.43;4.03;;;9.90;99.90;;;;;;5066469;28;20218;-71
2022/10/12 00:45:53;;;;;;;12.73;4.23;;;9.80;99.90;;;;;;5055549;28;20731;-71
2022/10/12 00:48:18;;;;;;;13.77;4.67;;;9.80;99.90;;;;;;5061918;28;20170;-72
2022/10/12 00:50:44;;;;;;;12.93;3.97;;;9.80;99.90;;;;;;5070025;28;20225;-71
2022/10/12 00:53:15;;;;;;;10.80;3.97;;;9.80;99.90;;;;;;5073104;28;20207;-70
2022/10/12 00:55:47;;;;;;;12.07;4.77;;;9.80;99.90;;;;;;5071131;28;20713;-71
2022/10/12 00:58:13;;;;;;;12.17;4.90;;;9.70;99.90;;;;;;5070041;28;20210;-71
2022/10/12 01:00:39;;;;;;;10.67;4.50;;;9.70;99.90;;;;;;5068716;28;20711;-71
2022/10/12 01:03:08;;;;;;;13.23;4.80;;;9.70;99.90;;;;;;5078094;28;20697;-71
2022/10/12 01:05:35;;;;;;;12.70;4.77;;;9.70;99.90;;;;;;5071306;28;20707;-70
2022/10/12 01:08:01;;;;;;;13.07;4.00;;;9.70;99.90;;;;;;5047006;28;20208;-71
2022/10/12 01:10:27;;;;;;;11.63;4.57;;;9.70;99.90;;;;;;5073833;28;20221;-71
2022/10/12 01:12:52;;;;;;;13.97;4.37;;;9.70;99.90;;;;;;5072123;28;20219;-71
2022/10/12 01:15:18;;;;;;;10.47;4.10;;;9.60;99.90;;;;;;5070577;28;20697;-72
2022/10/12 01:17:58;;;;;;;10.97;4.37;;;9.60;99.90;;;;;;5062620;28;20179;-70
2022/10/12 01:20:28;;;;;;;11.07;4.43;;;9.60;99.90;;;;;;5055756;28;20209;-71
2022/10/12 01:23:15;;;;;;;11.87;4.87;;;9.60;99.90;;;;;;5054033;28;21220;-71
2022/10/12 01:26:22;;;;;;;9.33;4.70;;;9.60;99.90;;;;;;5064841;28;20217;-71
2022/10/12 01:29:11;;;;;;;13.23;4.37;;;9.60;99.90;;;;;;5058978;28;20294;-71
2022/10/12 01:31:48;;;;;;;9.00;4.50;;;9.50;99.90;;;;;;5050033;28;20264;-71
2022/10/12 01:34:23;;;;;;;17.87;4.53;;;9.50;99.90;;;;;;5065757;28;20206;-71
2022/10/12 01:37:00;;;;;;;10.33;4.70;;;9.40;99.90;;;;;;5073299;28;20289;-71
2022/10/12 01:39:35;;;;;;;10.97;4.37;;;9.40;99.90;;;;;;5069637;28;20178;-71
2022/10/12 01:42:08;;;;;;;9.17;4.03;;;9.40;99.90;;;;;;5047460;28;20195;-71
2022/10/12 01:44:34;;;;;;;10.33;4.43;;;9.50;99.90;;;;;;5074088;28;20206;-70
2022/10/12 01:47:00;;;;;;;9.40;4.40;;;9.40;99.90;;;;;;5073253;28;20207;-70
2022/10/12 01:49:32;;;;;;;8.03;4.07;;;9.40;99.90;;;;;;5069193;28;20210;-71
2022/10/12 01:52:24;;;;;;;11.97;4.67;;;9.40;99.90;;;;;;5062519;28;20353;-71
2022/10/12 01:55:04;;;;;;;8.80;3.87;;;9.40;99.90;;;;;;5054999;28;20243;-70
2022/10/12 01:57:53;;;;;;;12.07;4.13;;;9.40;99.90;;;;;;5068890;28;20179;-72
2022/10/12 02:00:19;;;;;;;13.83;4.80;;;9.30;99.90;;;;;;5044016;28;20200;-71
2022/10/12 02:02:50;;;;;;;9.43;4.30;;;9.30;99.90;;;;;;5052656;28;20174;-72
2022/10/12 02:05:30;;;;;;;6.80;3.90;;;9.30;99.90;;;;;;5072630;28;20211;-71
2022/10/12 02:08:04;;;;;;;11.73;4.33;;;9.30;99.90;;;;;;5063361;28;20704;-70
2022/10/12 02:10:39;;;;;;;9.17;3.60;;;9.30;99.90;;;;;;5054664;28;20216;-70
2022/10/12 02:13:08;;;;;;;12.87;4.20;;;9.30;99.90;;;;;;5055123;28;20207;-69
2022/10/12 02:15:37;;;;;;;13.40;4.47;;;9.30;99.90;;;;;;5065832;28;20293;-71
2022/10/12 02:18:04;;;;;;;11.17;4.60;;;9.20;99.90;;;;;;5063386;28;20193;-72
2022/10/12 02:20:31;;;;;;;11.47;4.63;;;9.20;99.90;;;;;;5074790;28;20201;-71
2022/10/12 02:22:58;;;;;;;11.70;4.40;;;9.20;99.90;;;;;;5071237;28;20230;-71
2022/10/12 02:25:26;;;;;;;10.80;3.97;;;9.20;99.90;;;;;;5053888;28;20206;-71
2022/10/12 02:28:02;;;;;;;10.17;4.23;;;9.20;99.90;;;;;;5072645;28;20215;-71
2022/10/12 02:30:32;;;;;;;13.97;4.40;;;9.10;99.90;;;;;;5069669;28;20591;-70
2022/10/12 02:33:06;;;;;;;10.97;4.23;;;9.10;99.90;;;;;;5047577;28;20646;-71
2022/10/12 02:35:49;;;;;;;6.83;3.53;;;9.10;99.90;;;;;;5060274;28;20202;-71
2022/10/12 02:38:26;;;;;;;9.80;4.23;;;9.10;99.90;;;;;;5067030;28;20237;-71
2022/10/12 02:40:59;;;;;;;10.50;4.43;;;9.10;99.90;;;;;;5062146;28;20211;-71
2022/10/12 02:43:55;;;;;;;7.23;3.57;;;9.10;99.90;;;;;;5066448;28;20669;-71
2022/10/12 02:46:24;;;;;;;6.23;3.30;;;9.10;99.90;;;;;;5049654;28;20317;-71
2022/10/12 02:48:51;;;;;;;10.30;4.33;;;9.10;99.90;;;;;;5063481;28;20638;-69
2022/10/12 02:51:18;;;;;;;10.87;4.03;;;9.10;99.90;;;;;;5062652;28;20282;-71
2022/10/12 02:53:45;;;;;;;8.10;4.13;;;9.10;99.90;;;;;;5048043;28;20175;-71
2022/10/12 02:56:13;;;;;;;9.57;4.10;;;9.00;99.90;;;;;;5066027;28;20243;-70
2022/10/12 02:58:42;;;;;;;8.73;3.80;;;9.10;99.90;;;;;;5044877;28;20199;-72
2022/10/12 03:01:07;;;;;;;15.77;4.53;;;9.00;99.90;;;;;;5060304;28;20306;-70
2022/10/12 03:03:33;;;;;;;9.90;4.20;;;9.00;99.90;;;;;;5067761;28;20258;-71
2022/10/12 03:05:58;;;;;;;9.07;4.07;;;9.00;99.90;;;;;;5061365;28;20176;-71
2022/10/12 03:08:24;;;;;;;6.97;3.80;;;8.90;99.90;;;;;;5062848;28;20211;-71
2022/10/12 03:10:49;;;;;;;12.40;4.30;;;8.90;99.90;;;;;;5066768;28;20219;-70
2022/10/12 03:13:15;;;;;;;7.03;3.73;;;8.90;99.90;;;;;;5069840;28;20626;-71
2022/10/12 03:15:40;;;;;;;10.10;4.07;;;8.90;99.90;;;;;;5066641;28;20567;-71
2022/10/12 03:18:06;;;;;;;11.23;4.67;;;8.90;99.90;;;;;;5064891;28;20670;-70
2022/10/12 03:20:31;;;;;;;14.07;4.60;;;8.90;99.90;;;;;;5072021;28;20235;-72
2022/10/12 03:22:57;;;;;;;11.47;4.13;;;8.90;99.90;;;;;;5066998;28;20208;-70
2022/10/12 03:25:22;;;;;;;7.10;3.73;;;8.90;99.90;;;;;;5066904;28;20198;-70
2022/10/12 03:27:48;;;;;;;12.07;4.47;;;8.90;99.90;;;;;;5050662;28;20298;-71
2022/10/12 03:30:14;;;;;;;9.90;4.10;;;8.90;99.90;;;;;;5051539;28;20206;-71
2022/10/12 03:32:39;;;;;;;11.97;4.37;;;8.90;99.90;;;;;;5066887;28;20211;-71
2022/10/12 03:35:05;;;;;;;12.63;4.37;;;8.90;99.90;;;;;;5065346;28;20211;-71
2022/10/12 03:37:31;;;;;;;8.67;4.23;;;8.90;99.90;;;;;;5055731;28;20584;-71
2022/10/12 03:39:57;;;;;;;8.73;4.13;;;8.90;99.90;;;;;;5066350;28;20207;-70
2022/10/12 03:42:22;;;;;;;9.03;3.87;;;8.80;99.90;;;;;;5066699;28;20179;-71
2022/10/12 03:44:48;;;;;;;7.27;3.80;;;8.80;99.90;;;;;;5051289;28;20193;-71
2022/10/12 03:47:13;;;;;;;8.30;3.40;;;8.70;99.90;;;;;;5071837;28;20695;-71
2022/10/12 03:49:39;;;;;;;7.60;3.60;;;8.80;99.90;;;;;;5067773;28;20219;-71
2022/10/12 03:52:04;;;;;;;14.23;4.40;;;8.80;99.90;;;;;;5063477;28;20222;-72
2022/10/12 03:54:30;;;;;;;8.87;4.00;;;8.80;99.90;;;;;;5074826;28;20657;-71
2022/10/12 03:56:55;;;;;;;10.23;4.47;;;8.70;99.90;;;;;;5067174;28;20176;-71
2022/10/12 03:59:21;;;;;;;8.90;4.40;;;8.70;99.90;;;;;;5066414;28;20219;-71
2022/10/12 04:01:47;;;;;;;10.43;4.50;;;8.70;99.90;;;;;;5065520;28;20210;-72
2022/10/12 04:04:12;;;;;;;8.27;3.70;;;8.80;99.90;;;;;;5072131;28;20284;-70
2022/10/12 04:06:38;;;;;;;8.80;4.20;;;8.80;99.90;;;;;;5079745;28;20214;-71
2022/10/12 04:09:04;;;;;;;12.97;4.10;;;8.70;99.90;;;;;;5089739;28;20207;-72
2022/10/12 04:11:29;;;;;;;10.87;5.27;;;8.70;99.90;;;;;;5084137;28;20297;-72
2022/10/12 04:13:55;;;;;;;11.33;4.47;;;8.70;99.90;;;;;;5067591;28;20211;-71
2022/10/12 04:16:21;;;;;;;8.83;4.53;;;8.70;99.90;;;;;;5066631;28;20256;-72
2022/10/12 04:18:46;;;;;;;12.87;4.43;;;8.70;99.90;;;;;;5065826;28;20268;-71
2022/10/12 04:21:14;;;;;;;10.40;4.53;;;8.60;99.90;;;;;;5068683;28;20669;-71
2022/10/12 04:23:40;;;;;;;11.53;4.37;;;8.60;99.90;;;;;;5066718;28;20210;-70
2022/10/12 04:26:06;;;;;;;21.03;5.30;;;8.70;99.90;;;;;;5063157;28;20212;-71
2022/10/12 04:28:32;;;;;;;9.10;5.23;;;8.70;99.90;;;;;;5054738;28;20871;-72
2022/10/12 04:30:57;;;;;;;14.63;5.27;;;8.60;99.90;;;;;;5068241;28;20242;-71
2022/10/12 04:33:23;;;;;;;12.47;4.43;;;8.60;99.90;;;;;;5066423;28;20207;-71
2022/10/12 04:35:48;;;;;;;6.90;4.20;;;8.60;99.90;;;;;;5063677;28;20190;-71
2022/10/12 04:38:14;;;;;;;10.10;4.30;;;8.60;99.90;;;;;;5051012;28;20206;-70
2022/10/12 04:40:39;;;;;;;11.93;4.53;;;8.60;99.90;;;;;;5066055;28;20664;-70
2022/10/12 04:43:05;;;;;;;11.00;4.97;;;8.60;99.90;;;;;;5044934;28;20344;-70
2022/10/12 04:45:30;;;;;;;10.70;5.57;;;8.60;99.90;;;;;;5067941;28;20183;-71
2022/10/12 04:47:56;;;;;;;11.77;4.53;;;8.60;99.90;;;;;;5067036;28;20179;-71
2022/10/12 04:50:22;;;;;;;14.10;5.23;;;8.60;99.90;;;;;;5061831;28;20215;-71
2022/10/12 04:52:47;;;;;;;11.57;5.23;;;8.50;99.90;;;;;;5050225;28;20684;-71
2022/10/12 04:55:13;;;;;;;9.10;4.53;;;8.50;99.90;;;;;;5077909;28;20206;-72
2022/10/12 04:57:39;;;;;;;9.77;4.73;;;8.60;99.90;;;;;;5075140;28;20290;-71
2022/10/12 05:00:06;;;;;;;9.90;5.03;;;8.50;99.90;;;;;;5064708;28;20180;-71
2022/10/12 05:02:32;;;;;;;15.73;5.50;;;8.60;99.90;;;;;;5073830;28;20214;-71
2022/10/12 05:04:58;;;;;;;12.10;5.23;;;8.60;99.90;;;;;;5054311;28;20234;-70
2022/10/12 05:07:23;;;;;;;10.00;4.70;;;8.60;99.90;;;;;;5056878;28;20712;-70
2022/10/12 05:09:49;;;;;;;14.60;6.13;;;8.60;99.90;;;;;;5067871;28;20225;-71
2022/10/12 05:12:15;;;;;;;10.13;5.60;;;8.70;99.90;;;;;;5043816;23;20767;-69
2022/10/12 05:14:43;;;;;;;9.50;4.87;;;8.70;99.90;;;;;;5011075;28;20274;-69
2022/10/12 05:17:08;;;;;;;13.40;5.60;;;8.70;99.90;;;;;;5004629;28;20628;-70
2022/10/12 05:19:34;;;;;;;13.77;5.57;;;8.70;99.90;;;;;;5011723;28;20332;-69
2022/10/12 05:22:00;;;;;;;12.17;5.13;;;8.60;99.90;;;;;;5005064;28;20224;-69
2022/10/12 05:24:25;;;;;;;12.27;5.50;;;8.50;99.90;;;;;;5009274;28;20178;-70
2022/10/12 05:26:51;;;;;;;15.37;6.07;;;8.50;99.90;;;;;;5007758;28;20177;-70
2022/10/12 05:29:16;;;;;;;16.80;6.60;;;8.50;99.90;;;;;;5019110;28;20212;-68
2022/10/12 05:31:42;;;;;;;13.43;6.27;;;8.50;99.90;;;;;;5009793;28;20213;-71
2022/10/12 05:34:07;;;;;;;17.63;6.70;;;8.60;99.90;;;;;;5005030;28;20739;-70
2022/10/12 05:36:33;;;;;;;14.70;6.47;;;8.60;99.90;;;;;;5013848;28;20223;-70
2022/10/12 05:38:58;;;;;;;12.70;5.90;;;8.60;99.90;;;;;;5013808;28;20659;-68
2022/10/12 05:41:24;;;;;;;14.60;6.93;;;8.60;99.90;;;;;;5017243;28;20213;-70
2022/10/12 05:43:50;;;;;;;13.60;6.37;;;8.70;99.90;;;;;;4999846;28;20236;-69
2022/10/12 05:46:15;;;;;;;17.73;6.43;;;8.70;99.90;;;;;;5017850;28;20257;-70
2022/10/12 05:48:41;;;;;;;13.00;6.17;;;8.80;99.90;;;;;;5010190;28;20213;-70
2022/10/12 05:51:06;;;;;;;12.40;6.40;;;8.90;99.90;;;;;;4999816;28;20679;-70
2022/10/12 05:53:32;;;;;;;14.93;7.37;;;8.90;99.90;;;;;;5013809;28;20582;-71
2022/10/12 05:55:58;;;;;;;15.83;6.30;;;9.00;99.90;;;;;;5011163;28;20264;-70
2022/10/12 05:58:26;;;;;;;12.93;7.27;;;9.80;99.90;;;;;;5009372;28;20197;-72
2022/10/12 06:00:52;;;;;;;12.43;6.10;;;10.80;99.90;;;;;;5000612;28;20229;-72
2022/10/12 06:03:17;;;;;;;14.50;6.80;;;11.80;99.90;;;;;;5007731;28;20180;-69
2022/10/12 06:05:43;;;;;;;14.50;5.77;;;12.80;99.90;;;;;;5010260;28;20698;-68
2022/10/12 06:08:09;;;;;;;14.97;6.23;;;13.60;99.90;;;;;;5005750;28;20252;-69
2022/10/12 06:10:36;;;;;;;12.73;6.00;;;14.20;99.90;;;;;;5012071;28;20301;-69
2022/10/12 06:13:02;;;;;;;10.27;6.70;;;14.80;99.90;;;;;;5011934;28;20229;-72
2022/10/12 06:15:27;;;;;;;20.20;6.85;;;15.50;99.90;;;;;;5016488;28;20537;-70
2022/10/12 06:17:53;;;;;;;11.10;6.05;;;15.00;99.90;;;;;;5004468;28;20189;-69
2022/10/12 06:20:18;;;;;;;16.83;6.40;;;15.70;99.90;;;;;;5011457;28;20228;-70
2022/10/12 06:22:44;;;;;;;13.65;6.72;;;16.30;99.90;;;;;;5007698;28;20209;-70
2022/10/12 06:25:09;;;;;;;11.70;6.43;;;16.80;99.90;;;;;;5006595;28;20210;-69
2022/10/12 06:27:35;;;;;;;12.55;6.68;;;17.50;99.90;;;;;;5013820;28;20216;-70
2022/10/12 06:30:01;;;;;;;13.68;6.53;;;18.00;99.90;;;;;;5013487;28;20237;-69
2022/10/12 06:32:26;;;;;;;13.45;6.55;;;18.30;99.90;;;;;;5009457;28;20774;-70
2022/10/12 06:34:52;;;;;;;12.77;5.82;;;18.70;99.90;;;;;;5001454;28;20213;-70
2022/10/12 06:37:17;;;;;;;12.57;6.07;;;19.20;99.90;;;;;;5011331;28;20725;-71
2022/10/12 06:39:43;;;;;;;12.25;6.20;;;19.20;99.90;;;;;;5008403;28;20707;-70
2022/10/12 06:42:10;;;;;;;14.70;5.80;;;19.40;99.90;;;;;;5005018;28;20252;-70
2022/10/12 06:44:35;;;;;;;15.65;6.20;;;19.80;99.90;;;;;;5006506;28;20208;-70
2022/10/12 06:47:01;;;;;;;13.85;6.55;;;20.00;99.90;;;;;;5013413;28;20205;-70
2022/10/12 06:49:26;;;;;;;16.23;6.13;;;20.20;99.90;;;;;;5012536;28;20216;-70
2022/10/12 06:51:52;;;;;;;16.55;6.28;;;20.60;99.90;;;;;;4996744;28;20221;-70
2022/10/12 06:54:17;;;;;;;11.25;5.95;;;20.20;99.90;;;;;;5011208;28;20184;-70
2022/10/12 06:56:43;;;;;;;40.47;24.25;;;20.10;99.90;;;;;;5010531;28;20215;-70
2022/10/12 06:59:11;;;;;;;16.13;9.30;;;20.30;99.90;;;;;;5005832;28;20264;-68
2022/10/12 07:01:37;;;;;;;28.42;16.60;;;20.70;99.90;;;;;;5006291;28;20776;-70
2022/10/12 07:04:03;;;;;;;38.00;20.77;;;21.00;99.90;;;;;;5012438;28;20217;-70
2022/10/12 07:06:29;;;;;;;28.10;17.42;;;21.20;99.90;;;;;;5009224;28;20679;-70
2022/10/12 07:08:54;;;;;;;24.40;11.52;;;21.30;99.90;;;;;;5002003;28;20305;-69
2022/10/12 07:11:20;;;;;;;11.45;5.80;;;21.50;99.90;;;;;;5018121;28;20216;-69
2022/10/12 07:13:46;;;;;;;12.38;5.38;;;21.00;99.90;;;;;;5008542;28;20240;-70
2022/10/12 07:16:11;;;;;;;17.10;8.50;;;20.80;99.90;;;;;;5006797;28;20289;-70
2022/10/12 07:18:38;;;;;;;9.70;5.32;;;20.50;99.90;;;;;;5006675;28;20300;-70
2022/10/12 07:21:04;;;;;;;9.40;5.82;;;21.00;99.90;;;;;;5003634;28;20324;-70
2022/10/12 07:23:31;;;;;;;12.75;5.75;;;21.50;99.90;;;;;;5012585;28;20751;-70
2022/10/12 07:25:56;;;;;;;14.80;5.93;;;21.50;99.90;;;;;;5001636;28;20589;-69
2022/10/12 07:28:22;;;;;;;13.40;6.40;;;20.70;99.90;;;;;;5011812;28;20207;-71
2022/10/12 07:30:49;;;;;;;9.50;4.63;;;20.90;99.90;;;;;;5009840;28;20228;-70
2022/10/12 07:33:14;;;;;;;14.88;5.28;;;21.20;99.90;;;;;;5006535;28;20184;-70
2022/10/12 07:35:40;;;;;;;12.90;5.88;;;21.00;99.90;;;;;;5007081;28;20217;-70
2022/10/12 07:38:05;;;;;;;9.45;4.70;;;21.10;99.90;;;;;;5014579;28;20296;-70
2022/10/12 07:40:31;;;;;;;9.82;4.13;;;20.50;99.90;;;;;;5012094;28;20228;-70
2022/10/12 07:42:57;;;;;;;8.63;4.63;;;21.00;99.90;;;;;;5000553;28;20771;-70
2022/10/12 07:45:23;;;;;;;12.60;5.03;;;20.80;99.90;;;;;;5011840;28;20271;-70
2022/10/12 07:47:49;;;;;;;10.23;4.30;;;20.90;99.90;;;;;;5010725;28;20514;-70
2022/10/12 07:50:14;;;;;;;12.52;4.90;;;21.20;99.90;;;;;;5004302;28;20264;-70
2022/10/12 07:52:40;;;;;;;11.60;5.43;;;21.70;99.90;;;;;;5007457;28;20723;-72
2022/10/12 07:55:06;;;;;;;11.40;5.22;;;22.00;99.90;;;;;;5014742;28;20296;-72
2022/10/12 07:57:32;;;;;;;10.05;4.65;;;21.80;99.90;;;;;;5012667;28;20239;-72
2022/10/12 07:59:58;;;;;;;10.48;5.05;;;22.30;99.90;;;;;;5006002;28;20207;-68
2022/10/12 08:02:23;;;;;;;13.23;4.32;;;22.00;99.90;;;;;;5014500;28;20208;-72
2022/10/12 08:04:49;;;;;;;14.60;5.32;;;21.90;99.90;;;;;;5012550;28;20607;-72
2022/10/12 08:07:14;;;;;;;11.63;5.78;;;22.00;99.90;;;;;;5009997;28;20581;-70
2022/10/12 08:09:40;;;;;;;11.70;5.45;;;22.00;99.90;;;;;;5008496;28;20597;-70
2022/10/12 08:12:06;;;;;;;11.25;5.70;;;22.00;99.90;;;;;;5017353;28;20308;-70
2022/10/12 08:14:31;;;;;;;15.80;5.93;;;21.20;99.90;;;;;;5013330;28;20283;-71
2022/10/12 08:16:57;;;;;;;11.00;5.57;;;21.20;99.90;;;;;;5020760;28;20221;-70
2022/10/12 08:19:23;;;;;;;16.95;5.55;;;21.10;99.90;;;;;;5011874;28;20228;-71
2022/10/12 08:21:49;;;;;;;10.68;4.95;;;20.90;99.90;;;;;;5007341;28;20213;-71
2022/10/12 08:24:15;;;;;;;11.85;5.35;;;21.00;99.90;;;;;;5011593;28;20173;-71
2022/10/12 08:26:40;;;;;;;13.68;4.80;;;20.30;99.90;;;;;;5003783;28;20224;-71
2022/10/12 08:29:07;;;;;;;11.52;5.13;;;20.60;99.90;;;;;;5017658;28;20221;-70
2022/10/12 08:31:33;;;;;;;13.43;5.25;;;20.80;99.90;;;;;;5012818;28;20616;-72
2022/10/12 08:33:59;;;;;;;15.10;5.57;;;20.80;99.90;;;;;;5004465;28;20268;-69
2022/10/12 08:36:25;;;;;;;13.82;4.90;;;20.60;99.90;;;;;;5015435;28;20172;-70
2022/10/12 08:38:54;;;;;;;11.85;4.35;;;20.50;99.90;;;;;;5013939;28;20165;-70
2022/10/12 08:41:35;;;;;;;11.75;4.35;;;20.00;99.90;;;;;;5006631;28;20565;-70
2022/10/12 08:44:23;;;;;;;12.10;4.22;;;19.80;99.90;;;;;;5003307;28;20206;-70
2022/10/12 08:46:58;;;;;;;13.20;4.55;;;19.80;99.90;;;;;;5012702;28;20211;-69
2022/10/12 08:49:27;;;;;;;14.82;6.07;;;19.80;99.90;;;;;;5009490;28;20300;-70
2022/10/12 08:51:55;;;;;;;12.85;4.43;;;20.10;99.90;;;;;;4998575;28;20280;-69
2022/10/12 08:54:31;;;;;;;14.73;3.63;;;19.50;99.90;;;;;;5020274;28;20180;-70
2022/10/12 08:56:56;;;;;;;9.95;4.10;;;19.40;99.90;;;;;;5012182;28;20169;-69
2022/10/12 08:59:22;;;;;;;11.77;3.67;;;19.10;99.90;;;;;;5013117;28;20209;-69
2022/10/12 09:02:04;;;;;;;12.70;4.38;;;18.90;99.90;;;;;;5007049;28;20242;-70
2022/10/12 09:04:59;;;;;;;10.95;3.97;;;18.30;99.90;;;;;;5011802;28;20201;-70
2022/10/12 09:07:27;;;;;;;11.60;4.35;;;17.90;99.90;;;;;;5007279;28;20695;-70
2022/10/12 09:10:09;;;;;;;13.95;4.18;;;17.80;99.90;;;;;;5008375;28;20282;-70
2022/10/12 09:12:38;;;;;;;11.80;3.95;;;18.50;99.90;;;;;;5016228;28;20315;-70
2022/10/12 09:15:13;;;;;;;9.15;3.83;;;18.40;99.90;;;;;;5009067;28;20181;-69
2022/10/12 09:17:45;;;;;;;12.90;4.45;;;18.40;99.90;;;;;;5002762;28;20204;-71
2022/10/12 09:20:10;;;;;;;14.35;3.55;;;18.00;99.90;;;;;;5012822;28;20266;-69
2022/10/12 09:22:37;;;;;;;8.45;3.47;;;18.50;99.90;;;;;;5008224;28;20213;-70
2022/10/12 09:25:05;;;;;;;8.95;3.55;;;18.40;99.90;;;;;;5006137;28;20214;-69
2022/10/12 09:27:31;;;;;;;10.15;4.00;;;18.70;99.90;;;;;;5007878;28;20203;-70
2022/10/12 09:30:02;;;;;;;10.63;3.15;;;18.40;99.90;;;;;;5012649;28;20217;-70
2022/10/12 09:32:36;;;;;;;9.13;3.35;;;18.70;99.90;;;;;;5013739;28;20247;-70
2022/10/12 09:35:04;;;;;;;10.02;3.33;;;18.40;99.90;;;;;;5004657;28;20217;-70
2022/10/12 09:37:31;;;;;;;10.75;2.92;;;18.30;99.90;;;;;;5018292;28;20200;-70
2022/10/12 09:39:58;;;;;;;9.23;3.65;;;17.50;99.90;;;;;;5010397;28;20209;-70
2022/10/12 09:42:24;;;;;;;9.25;2.88;;;17.70;99.90;;;;;;5014372;28;20197;-70
2022/10/12 09:44:54;;;;;;;13.02;3.05;;;17.30;99.90;;;;;;5007846;28;20188;-70
2022/10/12 09:47:30;;;;;;;6.15;3.10;;;16.90;99.90;;;;;;5010713;28;20220;-71
2022/10/12 09:49:58;;;;;;;8.15;3.20;;;17.30;99.90;;;;;;5006512;28;20232;-70
2022/10/12 09:52:35;;;;;;;7.05;2.80;;;17.80;99.90;;;;;;5008094;28;20203;-70
2022/10/12 09:55:19;;;;;;;8.05;3.15;;;17.30;99.90;;;;;;5016998;28;20213;-70
2022/10/12 09:57:53;;;;;;;6.53;2.55;;;17.10;99.90;;;;;;5009761;28;20209;-70
2022/10/12 10:00:31;;;;;;;8.55;2.55;;;17.20;99.90;;;;;;5004184;28;20173;-71
2022/10/12 10:02:58;;;;;;;10.68;2.53;;;17.10;99.90;;;;;;5016100;28;20173;-70
2022/10/12 10:05:25;;;;;;;7.55;2.95;;;17.20;99.90;;;;;;5016419;28;20211;-71
2022/10/12 10:07:51;;;;;;;9.18;2.60;;;17.00;99.90;;;;;;5006091;28;20217;-71
2022/10/12 10:10:21;;;;;;;8.27;2.47;;;16.90;99.90;;;;;;5014897;28;20216;-70
2022/10/12 10:12:55;;;;;;;8.55;2.35;;;17.10;99.90;;;;;;5013039;28;20748;-71
2022/10/12 10:15:26;;;;;;;6.60;2.38;;;16.80;99.90;;;;;;5004002;28;20194;-69
2022/10/12 10:17:55;;;;;;;7.70;1.92;;;16.40;99.90;;;;;;4999476;28;20197;-72
2022/10/12 10:20:30;;;;;;;6.53;2.70;;;16.50;99.90;;;;;;5008459;28;20216;-71
2022/10/12 10:22:57;;;;;;;10.50;2.47;;;16.90;99.90;;;;;;5006477;28;20291;-71
2022/10/12 10:25:23;;;;;;;10.30;3.60;;;16.80;99.90;;;;;;5014881;28;20204;-71
2022/10/12 10:28:08;;;;;;;10.43;2.45;;;17.10;99.90;;;;;;5005835;28;20564;-72
2022/10/12 10:30:34;;;;;;;18.13;6.85;;;17.20;99.90;;;;;;5010632;28;20208;-71
2022/10/12 10:33:12;;;;;;;9.25;2.45;;;17.80;99.90;;;;;;5006609;28;20209;-70
2022/10/12 10:36:50;;;;;;;9.63;3.10;;;18.00;99.90;;;;;;5070143;28;20582;-73
2022/10/12 10:39:31;;;;;;;7.05;2.17;;;17.60;99.90;;;;;;5043468;28;20171;-72
2022/10/12 10:42:16;;;;;;;4.90;1.98;;;17.60;99.90;;;;;;5041799;28;20188;-72
2022/10/12 10:44:49;;;;;;;9.20;2.65;;;17.50;99.90;;;;;;5059488;28;20851;-73
2022/10/12 10:47:15;;;;;;;6.57;2.15;;;17.40;99.90;;;;;;5063164;28;20225;-71
2022/10/12 10:49:58;;;;;;;8.55;1.90;;;17.60;99.90;;;;;;5060873;28;20210;-74
2022/10/12 10:52:26;;;;;;;6.50;1.85;;;17.50;99.90;;;;;;5051521;28;20258;-71
2022/10/12 10:55:18;;;;;;;5.35;2.13;;;17.00;99.90;;;;;;5063993;28;20215;-71
2022/10/12 10:58:05;;;;;;;11.30;2.60;;;16.90;99.90;;;;;;5055939;28;20642;-73
2022/10/12 11:00:34;;;;;;;5.82;2.00;;;17.00;99.90;;;;;;5051571;28;20217;-75
2022/10/12 11:03:06;;;;;;;8.20;1.88;;;17.40;99.90;;;;;;5054371;28;20273;-70
2022/10/12 11:05:41;;;;;;;8.57;2.03;;;17.00;99.90;;;;;;5060624;28;20203;-70
2022/10/12 11:08:28;;;;;;;8.57;2.25;;;17.00;99.90;;;;;;5057312;28;20273;-70
2022/10/12 11:11:08;;;;;;;7.28;1.90;;;16.70;99.90;;;;;;5053850;28;20211;-70
2022/10/12 11:13:40;;;;;;;5.10;1.63;;;16.60;99.90;;;;;;5064767;22;20250;-71
2022/10/12 11:16:27;;;;;;;6.80;1.52;;;16.60;99.90;;;;;;5034120;28;20224;-70
2022/10/12 11:19:12;;;;;;;11.90;2.50;;;17.00;99.90;;;;;;5036234;28;20659;-69
2022/10/12 11:21:46;;;;;;;6.47;2.15;;;17.00;99.90;;;;;;5031856;28;20239;-70
2022/10/12 11:24:16;;;;;;;8.10;2.30;;;17.40;99.90;;;;;;5011039;28;20602;-71
2022/10/12 11:27:14;;;;;;;9.15;1.83;;;17.40;99.90;;;;;;4990438;28;20213;-71
2022/10/12 11:29:40;;;;;;;7.55;1.80;;;16.90;99.90;;;;;;5001190;28;20238;-71
2022/10/12 11:32:27;;;;;;;7.60;1.75;;;16.90;99.90;;;;;;5005400;28;20209;-74
2022/10/12 11:35:00;;;;;;;4.78;2.05;;;16.80;99.90;;;;;;5001895;28;20574;-71
2022/10/12 11:37:37;;;;;;;7.07;2.00;;;17.00;99.90;;;;;;5013234;28;20216;-72
2022/10/12 11:40:07;;;;;;;4.80;1.65;;;16.90;99.90;;;;;;5006268;28;20712;-71
2022/10/12 11:42:39;;;;;;;4.68;1.92;;;16.50;99.90;;;;;;5000944;28;20208;-71
2022/10/12 11:45:21;;;;;;;4.72;1.73;;;16.40;99.90;;;;;;5005475;28;20177;-70
2022/10/12 11:47:53;;;;;;;7.18;1.65;;;16.20;99.90;;;;;;4993943;28;20209;-71
2022/10/12 11:50:38;;;;;;;8.45;2.17;;;16.20;99.90;;;;;;4989010;28;20268;-71
2022/10/12 11:53:16;;;;;;;10.55;2.10;;;16.40;99.90;;;;;;4992717;28;20612;-71
2022/10/12 11:56:08;;;;;;;6.75;1.75;;;16.50;99.90;;;;;;4995542;28;20222;-71
2022/10/12 11:58:38;;;;;;;9.23;2.00;;;15.80;99.90;;;;;;4988954;28;20279;-71
2022/10/12 12:01:23;;;;;;;6.50;2.22;;;16.00;99.90;;;;;;4986079;28;20692;-71
2022/10/12 12:04:07;;;;;;;6.28;2.00;;;16.20;99.90;;;;;;4991326;28;20730;-71
2022/10/12 12:06:32;;;;;;;7.85;2.08;;;16.40;99.90;;;;;;4977518;28;20177;-73
2022/10/12 12:09:18;;;;;;;9.13;2.40;;;16.50;99.90;;;;;;4983481;28;20171;-72
2022/10/12 12:11:43;;;;;;;13.65;2.28;;;16.80;99.90;;;;;;4995914;28;20240;-72
2022/10/12 12:14:24;;;;;;;10.73;1.90;;;16.60;99.90;;;;;;4993791;28;20245;-71
2022/10/12 12:17:22;;;;;;;7.88;1.98;;;16.70;99.90;;;;;;4984618;28;20210;-71
2022/10/12 12:19:53;;;;;;;6.78;1.92;;;16.70;99.90;;;;;;4951085;28;20584;-71
2022/10/12 12:22:49;;;;;;;8.63;1.95;;;16.30;99.90;;;;;;4994578;28;20213;-71
2022/10/12 12:25:18;;;;;;;10.23;2.30;;;16.30;99.90;;;;;;4980970;28;20276;-71
2022/10/12 12:27:54;;;;;;;5.55;1.63;;;16.40;99.90;;;;;;4988933;28;20205;-71
2022/10/12 12:30:21;;;;;;;7.65;2.00;;;16.60;99.90;;;;;;4979212;28;20173;-71
2022/10/12 12:32:58;;;;;;;8.98;1.70;;;16.70;99.90;;;;;;4988934;28;20288;-71
2022/10/12 12:35:35;;;;;;;4.28;1.60;;;16.60;99.90;;;;;;4975495;28;20208;-70
2022/10/12 12:38:01;;;;;;;9.30;2.00;;;16.40;99.90;;;;;;4997064;28;20213;-71
2022/10/12 12:40:27;;;;;;;6.07;2.13;;;16.30;99.90;;;;;;4975521;28;20261;-71
2022/10/12 12:43:12;;;;;;;9.05;1.70;;;16.30;99.90;;;;;;4984677;28;20206;-71
2022/10/12 12:45:39;;;;;;;7.25;2.13;;;16.20;99.90;;;;;;4997116;28;20283;-71
2022/10/12 12:48:08;;;;;;;4.85;1.70;;;16.20;99.90;;;;;;4994634;28;20236;-71
2022/10/12 12:50:37;;;;;;;10.40;2.20;;;16.40;99.90;;;;;;4986271;28;20241;-71
2022/10/12 12:53:13;;;;;;;6.47;1.60;;;16.80;99.90;;;;;;4991322;28;20305;-71
2022/10/12 12:55:38;;;;;;;6.63;2.05;;;16.70;99.90;;;;;;4995772;28;20327;-71
2022/10/12 12:58:18;;;;;;;6.90;1.85;;;16.40;99.90;;;;;;4989007;28;20308;-71
2022/10/12 13:01:22;;;;;;;6.53;1.85;;;16.40;99.90;;;;;;4966635;28;20585;-71